Time;durP1;ratioP1;P1;durP2;ratioP2;P2;SDS_P1;SDS_P2;PMS_P1;PMS_P2;Temp;Humidity;BMP_temperature;BMP_pressure;BME280_temperature;BME280_humidity;BME280_pressure;Samples;Min_cycle;Max_cycle;Signal;HPM_P1;HPM_P2
2023/09/18 00:02:16;;;;;;;4.43;3.38;;;;;;;22.74;44.30;100284.47;4955204;28;20078;-70
2023/09/18 00:04:44;;;;;;;6.05;3.85;;;;;;;22.73;44.10;100271.63;4956432;28;20482;-71
2023/09/18 00:07:12;;;;;;;5.22;3.75;;;;;;;22.71;44.16;100268.19;4946375;28;20061;-71
2023/09/18 00:09:40;;;;;;;4.68;3.67;;;;;;;22.69;44.35;100270.34;4957584;28;20105;-70
2023/09/18 00:12:09;;;;;;;5.35;4.00;;;;;;;22.68;44.38;100267.78;4946600;28;20583;-70
2023/09/18 00:14:37;;;;;;;6.50;4.38;;;;;;;22.66;44.59;100256.88;4954737;28;20047;-70
2023/09/18 00:17:07;;;;;;;6.03;4.20;;;;;;;22.67;44.08;100252.16;4954913;28;20066;-71
2023/09/18 00:19:35;;;;;;;5.18;3.97;;;;;;;22.62;44.55;100244.47;4956090;28;20059;-70
2023/09/18 00:22:03;;;;;;;6.30;4.15;;;;;;;22.61;44.38;100251.09;4955771;28;20162;-71
2023/09/18 00:24:31;;;;;;;5.20;3.80;;;;;;;22.58;44.49;100249.66;4955050;28;20116;-70
2023/09/18 00:26:59;;;;;;;4.45;3.90;;;;;;;22.57;44.65;100235.94;4946010;28;20051;-71
2023/09/18 00:29:27;;;;;;;5.88;4.10;;;;;;;22.55;44.53;100221.34;4954988;28;20447;-71
2023/09/18 00:31:55;;;;;;;5.88;3.80;;;;;;;22.53;44.72;100224.38;4945147;28;20103;-71
2023/09/18 00:34:24;;;;;;;6.25;4.00;;;;;;;22.53;44.63;100220.69;4946019;28;20126;-70
2023/09/18 00:36:52;;;;;;;5.55;4.05;;;;;;;22.50;44.72;100224.81;4943207;28;20085;-70
2023/09/18 00:39:20;;;;;;;5.97;3.47;;;;;;;22.48;44.64;100215.81;4943866;28;20645;-70
2023/09/18 00:41:53;;;;;;;6.18;3.30;;;;;;;22.46;44.43;100217.09;4954148;28;20380;-70
2023/09/18 00:44:21;;;;;;;5.38;3.70;;;;;;;22.45;44.41;100210.69;4953937;28;20051;-70
2023/09/18 00:46:50;;;;;;;5.10;3.67;;;;;;;22.44;44.73;100208.97;4944552;28;20043;-70
2023/09/18 00:49:19;;;;;;;5.47;3.72;;;;;;;22.44;44.69;100196.97;4946962;28;20122;-70
2023/09/18 00:51:49;;;;;;;5.47;4.00;;;;;;;22.43;44.83;100203.63;4944678;28;20038;-70
2023/09/18 00:54:19;;;;;;;4.90;3.50;;;;;;;22.41;44.56;100200.22;4956392;28;20054;-70
2023/09/18 00:56:48;;;;;;;5.85;3.78;;;;;;;22.38;44.65;100197.88;4954457;28;20046;-70
2023/09/18 00:59:16;;;;;;;6.05;3.70;;;;;;;22.36;44.66;100198.09;4957018;28;20126;-71
2023/09/18 01:01:45;;;;;;;6.57;3.72;;;;;;;22.35;44.75;100190.81;4945621;28;20074;-70
2023/09/18 01:04:15;;;;;;;5.68;3.88;;;;;;;22.33;44.65;100181.00;4949448;28;20081;-71
2023/09/18 01:06:43;;;;;;;5.47;3.70;;;;;;;22.31;44.78;100180.38;4947214;28;20250;-71
2023/09/18 01:09:14;;;;;;;6.07;3.95;;;;;;;22.32;44.59;100184.84;4947404;28;20169;-70
2023/09/18 01:11:53;;;;;;;7.38;4.28;;;;;;;22.32;44.89;100184.84;4956797;28;20206;-70
2023/09/18 01:14:30;;;;;;;5.72;4.00;;;;;;;22.29;44.77;100183.38;4946679;28;20073;-70
2023/09/18 01:17:01;;;;;;;4.88;3.78;;;;;;;22.25;44.89;100187.72;4947208;28;20062;-71
2023/09/18 01:19:37;;;;;;;6.80;3.60;;;;;;;22.22;44.91;100180.66;4957063;28;20648;-71
2023/09/18 01:22:06;;;;;;;5.97;3.78;;;;;;;22.19;44.58;100181.09;4950555;28;20488;-70
2023/09/18 01:24:37;;;;;;;6.70;3.92;;;;;;;22.20;44.71;100168.00;4947151;28;20141;-71
2023/09/18 01:27:06;;;;;;;5.60;3.60;;;;;;;22.17;44.60;100169.34;4957945;28;20051;-70
2023/09/18 01:29:34;;;;;;;5.50;3.90;;;;;;;22.13;44.75;100151.34;4945181;28;20057;-70
2023/09/18 01:32:02;;;;;;;7.00;4.13;;;;;;;22.11;44.87;100159.06;4957438;28;20145;-70
2023/09/18 01:34:35;;;;;;;6.43;4.30;;;;;;;22.11;44.69;100155.44;4949415;28;20049;-70
2023/09/18 01:37:07;;;;;;;5.65;4.00;;;;;;;22.05;44.67;100145.19;4960942;28;20057;-70
2023/09/18 01:39:37;;;;;;;7.68;4.30;;;;;;;22.04;44.77;100149.91;4960356;28;20058;-71
2023/09/18 01:42:07;;;;;;;6.03;4.03;;;;;;;22.01;44.73;100146.75;4951843;28;20142;-70
2023/09/18 01:44:35;;;;;;;5.80;4.15;;;;;;;21.98;44.86;100141.63;4947482;28;20046;-70
2023/09/18 01:47:04;;;;;;;6.97;4.05;;;;;;;21.97;44.75;100145.47;4960899;28;20050;-71
2023/09/18 01:49:34;;;;;;;5.82;4.03;;;;;;;21.94;45.22;100134.78;4950204;28;20065;-71
2023/09/18 01:52:03;;;;;;;6.25;3.63;;;;;;;21.91;44.86;100132.47;4951417;28;20086;-71
2023/09/18 01:54:31;;;;;;;5.60;3.85;;;;;;;21.88;45.11;100128.16;4951388;28;20623;-71
2023/09/18 01:57:00;;;;;;;5.32;4.03;;;;;;;21.89;45.15;100144.66;4958882;28;20480;-73
2023/09/18 01:59:29;;;;;;;6.55;3.63;;;;;;;21.87;45.05;100129.22;4948631;28;20043;-72
2023/09/18 02:01:57;;;;;;;4.88;3.60;;;;;;;21.86;45.10;100131.16;4947998;28;20413;-72
2023/09/18 02:04:27;;;;;;;5.63;3.90;;;;;;;21.86;44.93;100124.75;4959866;28;20059;-72
2023/09/18 02:07:15;;;;;;;5.90;3.70;;;;;;;21.86;45.25;100130.31;4949869;28;20043;-72
2023/09/18 02:09:43;;;;;;;5.25;3.63;;;;;;;21.86;44.99;100122.81;4949554;28;20745;-72
2023/09/18 02:12:17;;;;;;;6.43;3.88;;;;;;;21.89;45.15;100122.38;4961363;28;20047;-72
2023/09/18 02:14:45;;;;;;;5.13;3.22;;;;;;;21.88;45.13;100119.81;4947468;28;20051;-72
2023/09/18 02:17:13;;;;;;;5.75;3.67;;;;;;;21.88;45.25;100109.50;4959235;28;21732;-72
2023/09/18 02:19:42;;;;;;;5.80;3.63;;;;;;;21.89;45.20;100116.78;4959363;28;20070;-72
2023/09/18 02:22:10;;;;;;;6.05;3.63;;;;;;;21.89;45.06;100107.59;4951596;28;20054;-72
2023/09/18 02:24:39;;;;;;;6.72;3.72;;;;;;;21.91;45.03;100108.25;4960044;28;20139;-72
2023/09/18 02:27:07;;;;;;;5.03;3.55;;;;;;;21.88;45.21;100094.72;4958875;28;20043;-72
2023/09/18 02:29:36;;;;;;;5.88;3.92;;;;;;;21.90;44.96;100081.44;4944853;23;21089;-72
2023/09/18 02:32:04;;;;;;;5.30;3.58;;;;;;;21.87;45.09;100073.53;4905112;29;20507;-72
2023/09/18 02:34:33;;;;;;;5.65;3.78;;;;;;;21.86;45.22;100082.94;4894362;29;20111;-72
2023/09/18 02:37:01;;;;;;;5.45;3.72;;;;;;;21.86;45.11;100102.44;4890060;29;20773;-72
2023/09/18 02:39:29;;;;;;;5.68;3.75;;;;;;;21.86;45.11;100125.59;4910237;29;20249;-72
2023/09/18 02:41:57;;;;;;;6.13;3.80;;;;;;;21.85;45.11;100120.25;4905940;29;20146;-72
2023/09/18 02:44:25;;;;;;;5.82;3.80;;;;;;;21.85;45.17;100112.75;4904061;29;20379;-72
2023/09/18 02:46:54;;;;;;;5.03;3.88;;;;;;;21.87;45.07;100105.00;4883551;29;20060;-72
2023/09/18 02:49:22;;;;;;;5.57;3.70;;;;;;;21.85;44.97;100096.03;4892042;29;20828;-72
2023/09/18 02:51:50;;;;;;;6.05;3.80;;;;;;;21.84;44.76;100079.56;4888844;29;20147;-72
2023/09/18 02:54:18;;;;;;;6.30;3.70;;;;;;;21.83;44.94;100064.78;4887660;29;20080;-72
2023/09/18 02:56:46;;;;;;;4.57;3.38;;;;;;;21.84;44.93;100060.06;4900895;29;20047;-72
2023/09/18 02:59:14;;;;;;;5.47;3.30;;;;;;;21.83;45.26;100067.56;4890524;29;20048;-72
2023/09/18 03:01:42;;;;;;;5.55;3.60;;;;;;;21.83;45.12;100055.56;4888459;29;20475;-72
2023/09/18 03:04:11;;;;;;;6.95;3.58;;;;;;;21.85;45.21;100053.38;4886975;29;20147;-72
2023/09/18 03:06:40;;;;;;;5.13;3.47;;;;;;;21.82;45.11;100043.56;4884832;29;20052;-72
2023/09/18 03:09:08;;;;;;;7.15;3.70;;;;;;;21.82;45.19;100034.38;4906201;29;20048;-72
2023/09/18 03:11:36;;;;;;;6.15;3.45;;;;;;;21.81;45.34;100030.72;4891150;29;20056;-72
2023/09/18 03:14:04;;;;;;;5.95;3.50;;;;;;;21.82;45.53;100020.44;4887155;29;20532;-72
2023/09/18 03:16:33;;;;;;;5.90;3.60;;;;;;;21.82;45.26;100028.78;4886746;29;21040;-72
2023/09/18 03:19:01;;;;;;;6.10;3.75;;;;;;;21.81;45.33;100035.44;4894401;29;20060;-72
2023/09/18 03:21:35;;;;;;;5.13;3.40;;;;;;;21.83;45.35;100031.34;4889554;29;20104;-72
2023/09/18 03:24:04;;;;;;;6.38;3.55;;;;;;;21.79;45.44;100027.31;4891798;29;20069;-72
2023/09/18 03:26:31;;;;;;;5.22;3.53;;;;;;;21.81;45.58;100024.31;4885271;29;20162;-72
2023/09/18 03:29:00;;;;;;;5.50;3.47;;;;;;;21.81;45.58;100007.59;4884564;29;20087;-72
2023/09/18 03:31:29;;;;;;;5.55;4.10;;;;;;;21.82;45.52;99998.16;4903798;29;20079;-72
2023/09/18 03:33:58;;;;;;;8.20;3.80;;;;;;;21.81;45.55;100005.66;4891159;29;20058;-72
2023/09/18 03:36:27;;;;;;;4.65;3.20;;;;;;;21.81;45.49;100008.44;4892232;29;20058;-72
2023/09/18 03:38:57;;;;;;;5.63;3.50;;;;;;;21.82;45.46;99987.88;4907060;29;20052;-71
2023/09/18 03:41:25;;;;;;;5.43;3.53;;;;;;;21.80;45.48;99981.66;4890538;29;20574;-71
2023/09/18 03:43:53;;;;;;;6.63;3.63;;;;;;;21.79;45.58;99988.31;4889942;29;20516;-72
2023/09/18 03:46:21;;;;;;;5.28;4.18;;;;;;;21.79;45.50;99993.03;4888131;29;20048;-72
2023/09/18 03:48:51;;;;;;;6.07;3.67;;;;;;;21.77;45.73;99993.25;4903279;29;20063;-71
2023/09/18 03:51:20;;;;;;;6.32;3.72;;;;;;;21.75;45.58;99992.66;4913150;29;20991;-72
2023/09/18 03:53:48;;;;;;;4.32;3.28;;;;;;;21.74;45.61;99996.50;4886816;29;20048;-72
2023/09/18 03:56:17;;;;;;;5.40;3.42;;;;;;;21.75;45.75;99998.22;4890269;29;20514;-72
2023/09/18 03:58:49;;;;;;;7.10;3.80;;;;;;;21.72;45.69;100009.81;4888530;29;20417;-72
2023/09/18 04:01:17;;;;;;;5.13;3.45;;;;;;;21.69;45.81;100004.69;4889996;29;20052;-72
2023/09/18 04:03:46;;;;;;;4.63;3.58;;;;;;;21.70;45.83;99995.25;4914452;29;20112;-72
2023/09/18 04:06:14;;;;;;;5.47;3.30;;;;;;;21.68;45.85;99972.38;4900391;29;20044;-72
2023/09/18 04:08:42;;;;;;;5.65;3.60;;;;;;;21.68;46.03;99975.16;4902012;29;20610;-72
2023/09/18 04:11:11;;;;;;;5.88;3.33;;;;;;;21.69;45.81;99993.53;4890326;29;20464;-72
2023/09/18 04:13:40;;;;;;;6.15;2.95;;;;;;;21.70;45.94;99994.41;4886303;29;20507;-71
2023/09/18 04:16:08;;;;;;;6.07;3.47;;;;;;;21.68;46.13;100005.78;4903610;29;20559;-72
2023/09/18 04:18:36;;;;;;;4.72;3.13;;;;;;;21.68;45.84;100011.34;4887903;29;20831;-72
2023/09/18 04:21:04;;;;;;;5.57;3.10;;;;;;;21.68;46.01;100008.56;4887737;29;20442;-72
2023/09/18 04:23:33;;;;;;;5.13;2.90;;;;;;;21.68;45.77;99997.44;4887409;29;20188;-72
2023/09/18 04:26:02;;;;;;;5.97;3.47;;;;;;;21.69;45.89;99992.69;4904291;29;20055;-72
2023/09/18 04:28:30;;;;;;;6.45;3.65;;;;;;;21.69;45.99;99987.97;4887629;29;20502;-72
2023/09/18 04:31:00;;;;;;;5.25;3.20;;;;;;;21.70;45.94;99984.13;4889404;29;20060;-72
2023/09/18 04:33:29;;;;;;;7.13;3.13;;;;;;;21.70;45.99;99981.31;4888926;29;20107;-71
2023/09/18 04:35:58;;;;;;;5.00;3.45;;;;;;;21.70;46.01;99989.69;4886372;29;20527;-71
2023/09/18 04:38:26;;;;;;;4.85;3.20;;;;;;;21.71;46.06;99991.38;4891126;29;20052;-72
2023/09/18 04:40:59;;;;;;;7.05;3.78;;;;;;;21.74;46.32;100009.59;4884336;29;20055;-71
2023/09/18 04:43:29;;;;;;;;;;;;;;;21.43;46.57;100010.50;4887790;29;20056;-72
2023/09/18 04:45:57;;;;;;;4.05;2.80;;;;;;;21.69;46.25;100007.47;4888957;29;20290;-72
2023/09/18 04:48:26;;;;;;;6.43;3.20;;;;;;;21.74;45.92;99996.50;4887438;29;20051;-72
2023/09/18 04:50:54;;;;;;;5.72;3.13;;;;;;;21.74;46.11;100010.44;4884565;29;20062;-72
2023/09/18 04:53:22;;;;;;;6.85;3.20;;;;;;;21.76;46.11;100011.06;4888544;29;20423;-72
2023/09/18 04:55:51;;;;;;;6.15;2.95;;;;;;;21.77;46.04;100015.53;4887314;29;20051;-72
2023/09/18 04:58:18;;;;;;;5.78;2.92;;;;;;;21.77;46.17;100003.53;4888668;29;20060;-72
2023/09/18 05:00:47;;;;;;;5.13;2.85;;;;;;;21.79;46.12;100005.03;4903388;29;20178;-72
2023/09/18 05:03:15;;;;;;;4.72;2.58;;;;;;;21.79;46.07;100012.53;4889295;29;20146;-72
2023/09/18 05:05:44;;;;;;;5.57;3.05;;;;;;;21.83;46.08;100022.16;4901055;29;20056;-72
2023/09/18 05:08:12;;;;;;;5.30;2.83;;;;;;;21.82;46.13;100009.28;4904210;29;20230;-72
2023/09/18 05:10:40;;;;;;;5.07;3.08;;;;;;;21.83;46.03;100006.28;4906091;29;20068;-72
2023/09/18 05:13:08;;;;;;;4.45;2.60;;;;;;;21.84;45.92;100012.72;4905932;29;20238;-72
2023/09/18 05:15:37;;;;;;;6.50;2.53;;;;;;;21.84;45.97;100021.94;4907196;29;20056;-72
2023/09/18 05:18:05;;;;;;;8.95;2.95;;;;;;;21.84;45.98;100012.72;4897000;29;20584;-72
2023/09/18 05:20:35;;;;;;;4.38;2.63;;;;;;;21.86;45.92;100005.81;4905665;29;20963;-72
2023/09/18 05:23:05;;;;;;;5.28;2.88;;;;;;;21.85;45.91;100004.09;4907205;29;20058;-72
2023/09/18 05:25:37;;;;;;;5.88;2.72;;;;;;;21.85;45.91;100015.25;4909192;29;20043;-72
2023/09/18 05:28:06;;;;;;;6.63;2.55;;;;;;;21.83;46.16;100008.22;4909881;29;20978;-72
2023/09/18 05:30:38;;;;;;;5.40;2.40;;;;;;;21.83;46.23;100000.72;4904298;29;20174;-72
2023/09/18 05:33:07;;;;;;;5.60;2.50;;;;;;;21.80;45.82;99989.16;4910315;29;20149;-72
2023/09/18 05:35:37;;;;;;;5.53;2.88;;;;;;;21.82;45.96;99992.59;4902299;29;20134;-72
2023/09/18 05:38:07;;;;;;;5.25;2.65;;;;;;;21.82;45.83;99998.16;4904197;29;20464;-72
2023/09/18 05:40:35;;;;;;;6.57;2.70;;;;;;;21.79;45.60;99993.03;4889451;29;20147;-71
2023/09/18 05:43:03;;;;;;;5.50;2.53;;;;;;;21.77;45.54;99998.81;4910772;29;20088;-71
2023/09/18 05:45:31;;;;;;;5.28;2.30;;;;;;;21.76;45.68;100008.28;4886837;29;20054;-71
2023/09/18 05:48:03;;;;;;;3.70;2.10;;;;;;;21.74;45.63;100026.28;4911798;29;20048;-72
2023/09/18 05:50:33;;;;;;;5.93;2.70;;;;;;;21.73;45.67;100039.38;4905313;29;20397;-71
2023/09/18 05:53:03;;;;;;;4.78;2.25;;;;;;;21.72;45.68;100047.94;4908227;29;20528;-71
2023/09/18 05:55:34;;;;;;;4.05;2.42;;;;;;;21.72;45.82;100046.00;4906455;29;20095;-72
2023/09/18 05:58:04;;;;;;;4.72;2.15;;;;;;;21.70;45.82;100037.03;4908253;29;20087;-71
2023/09/18 06:00:32;;;;;;;5.80;2.58;;;;;;;21.69;45.95;100032.53;4903551;29;20392;-72
2023/09/18 06:03:00;;;;;;;4.80;2.13;;;;;;;21.70;45.79;100037.03;4901129;29;20047;-71
2023/09/18 06:05:30;;;;;;;4.90;2.30;;;;;;;21.70;45.98;100039.81;4891927;29;20059;-72
2023/09/18 06:08:00;;;;;;;4.05;2.40;;;;;;;21.70;45.89;100037.03;4907678;29;20056;-71
2023/09/18 06:10:28;;;;;;;4.75;2.42;;;;;;;21.70;45.76;100042.59;4907742;29;20075;-71
2023/09/18 06:12:58;;;;;;;4.55;2.40;;;;;;;21.72;45.75;100026.53;4908090;29;20058;-71
2023/09/18 06:15:26;;;;;;;4.95;2.58;;;;;;;21.70;45.81;100025.03;4906091;29;20048;-72
2023/09/18 06:17:54;;;;;;;5.35;2.50;;;;;;;21.70;45.43;100034.25;4909448;29;20070;-71
2023/09/18 06:20:22;;;;;;;3.40;2.10;;;;;;;21.69;45.63;100052.03;4907126;29;20052;-71
2023/09/18 06:22:50;;;;;;;4.90;2.30;;;;;;;21.69;45.63;100060.38;4904767;29;20052;-72
2023/09/18 06:25:18;;;;;;;4.22;2.10;;;;;;;21.69;45.35;100065.09;4910074;29;20052;-71
2023/09/18 06:27:46;;;;;;;4.75;2.05;;;;;;;21.69;45.71;100062.31;4887339;29;20110;-71
2023/09/18 06:30:16;;;;;;;3.22;1.90;;;;;;;21.71;45.51;100037.88;4909700;29;20740;-71
2023/09/18 06:32:44;;;;;;;6.30;2.05;;;;;;;21.69;45.67;100035.31;4907404;29;20059;-71
2023/09/18 06:35:12;;;;;;;5.53;2.63;;;;;;;21.69;45.70;100032.53;4905714;29;20063;-72
2023/09/18 06:37:40;;;;;;;3.58;2.00;;;;;;;21.69;45.48;100040.88;4908665;29;20593;-71
2023/09/18 06:40:10;;;;;;;4.25;2.13;;;;;;;21.71;45.66;100044.31;4891100;29;20113;-71
2023/09/18 06:42:38;;;;;;;3.38;1.65;;;;;;;21.71;45.51;100054.59;4905327;29;20071;-72
2023/09/18 06:45:07;;;;;;;4.93;2.10;;;;;;;21.72;45.40;100061.88;4908008;29;20071;-72
2023/09/18 06:47:37;;;;;;;4.18;1.90;;;;;;;21.74;45.40;100065.28;4903565;29;20051;-71
2023/09/18 06:50:06;;;;;;;3.50;1.90;;;;;;;21.73;45.50;100052.44;4911834;29;20063;-71
2023/09/18 06:52:34;;;;;;;3.45;1.90;;;;;;;21.73;45.73;100061.66;4888045;29;20056;-71
2023/09/18 06:55:02;;;;;;;3.10;1.88;;;;;;;21.74;45.79;100063.34;4908641;29;20044;-72
2023/09/18 06:57:30;;;;;;;4.28;1.80;;;;;;;21.75;45.56;100065.06;4888649;29;20520;-71
2023/09/18 06:59:58;;;;;;;5.13;2.05;;;;;;;21.77;45.84;100064.81;4903204;29;20044;-71
2023/09/18 07:02:27;;;;;;;3.13;1.63;;;;;;;21.78;45.39;100067.38;4884183;29;20538;-71
2023/09/18 07:04:56;;;;;;;3.75;1.90;;;;;;;21.82;45.34;100062.22;4887754;29;20510;-70
2023/09/18 07:07:25;;;;;;;3.40;1.90;;;;;;;21.82;45.30;100070.56;4904209;29;20048;-70
2023/09/18 07:09:53;;;;;;;3.95;1.75;;;;;;;21.83;45.35;100069.50;4898970;29;20083;-71
2023/09/18 07:12:32;;;;;;;4.72;2.20;;;;;;;21.85;45.45;100076.53;4899947;29;20059;-70
2023/09/18 07:15:04;;;;;;;3.22;1.73;;;;;;;21.90;45.41;100084.22;4881872;29;20044;-70
2023/09/18 07:17:33;;;;;;;4.97;1.77;;;;;;;21.90;45.27;100084.22;4883285;29;20456;-70
2023/09/18 07:20:09;;;;;;;5.13;1.88;;;;;;;21.94;45.09;100085.50;4904263;29;20903;-70
2023/09/18 07:22:37;;;;;;;4.63;1.80;;;;;;;21.92;44.79;100092.38;4899578;29;20134;-69
2023/09/18 07:25:06;;;;;;;4.47;2.00;;;;;;;21.94;44.95;100110.56;4903780;29;20237;-71
2023/09/18 07:27:36;;;;;;;3.05;1.58;;;;;;;21.95;45.07;100105.84;4900438;29;20079;-70
2023/09/18 07:30:05;;;;;;;4.15;1.83;;;;;;;21.96;45.00;100122.34;4902158;29;20075;-72
2023/09/18 07:32:33;;;;;;;3.83;1.65;;;;;;;21.96;45.00;100107.56;4884368;29;20509;-70
2023/09/18 07:35:09;;;;;;;3.28;1.58;;;;;;;21.98;44.92;100113.75;4888784;29;20052;-72
2023/09/18 07:37:37;;;;;;;4.45;2.08;;;;;;;21.95;44.73;100115.06;4897022;29;20412;-71
2023/09/18 07:40:07;;;;;;;3.92;1.80;;;;;;;21.98;44.90;100109.03;4887624;29;20555;-71
2023/09/18 07:42:35;;;;;;;3.60;1.70;;;;;;;21.98;45.02;100111.84;4901987;29;20067;-71
2023/09/18 07:45:04;;;;;;;3.85;1.60;;;;;;;21.99;44.78;100124.69;4899997;29;20044;-70
2023/09/18 07:47:32;;;;;;;4.00;1.48;;;;;;;22.00;44.79;100129.19;4899724;29;20060;-73
2023/09/18 07:50:01;;;;;;;3.42;1.48;;;;;;;22.02;44.47;100124.22;4886061;29;20078;-72
2023/09/18 07:52:31;;;;;;;3.25;1.40;;;;;;;22.03;44.34;100137.06;4902429;29;20068;-73
2023/09/18 07:54:59;;;;;;;3.33;1.50;;;;;;;22.03;44.66;100139.00;4883728;29;20515;-71
2023/09/18 07:57:30;;;;;;;4.25;1.40;;;;;;;22.03;44.37;100153.78;4902237;29;20570;-72
2023/09/18 07:59:58;;;;;;;4.45;1.75;;;;;;;22.04;44.60;100151.84;4901866;29;20048;-71
2023/09/18 08:02:28;;;;;;;4.45;1.48;;;;;;;22.05;44.36;100143.28;4879674;29;20157;-71
2023/09/18 08:04:57;;;;;;;2.53;1.30;;;;;;;22.05;44.24;100134.91;4883544;29;20052;-72
2023/09/18 08:07:25;;;;;;;3.60;1.35;;;;;;;22.06;44.10;100124.63;4903285;29;20063;-73
2023/09/18 08:09:54;;;;;;;3.83;1.52;;;;;;;22.09;44.09;100143.69;4907327;29;20147;-72
2023/09/18 08:12:22;;;;;;;2.85;1.20;;;;;;;22.08;44.14;100150.34;4885504;29;20135;-70
2023/09/18 08:14:51;;;;;;;2.70;1.20;;;;;;;22.08;43.80;100145.63;4900693;29;20563;-72
2023/09/18 08:17:18;;;;;;;2.97;1.30;;;;;;;22.09;43.81;100161.25;4883806;29;20998;-71
2023/09/18 08:19:46;;;;;;;2.47;1.17;;;;;;;22.10;43.58;100159.28;4887263;29;20724;-72
2023/09/18 08:22:16;;;;;;;2.63;1.00;;;;;;;22.11;43.48;100155.44;4903565;29;20137;-73
2023/09/18 08:24:45;;;;;;;2.47;1.10;;;;;;;22.11;43.31;100147.06;4904449;29;20524;-71
2023/09/18 08:27:17;;;;;;;6.10;1.10;;;;;;;22.14;43.32;100158.63;4885126;29;20081;-71
2023/09/18 08:29:45;;;;;;;2.50;1.30;;;;;;;22.09;43.52;100161.25;4908101;29;20084;-70
2023/09/18 08:32:13;;;;;;;2.58;1.10;;;;;;;22.12;43.63;100157.16;4907045;29;20077;-72
2023/09/18 08:34:41;;;;;;;2.25;1.00;;;;;;;22.13;43.00;100153.28;4906953;29;20047;-70
2023/09/18 08:37:09;;;;;;;3.95;1.17;;;;;;;22.12;43.13;100152.44;4891995;29;20083;-71
2023/09/18 08:39:37;;;;;;;2.58;1.20;;;;;;;22.12;43.01;100159.94;4898746;29;20066;-70
2023/09/18 08:42:08;;;;;;;3.80;1.17;;;;;;;22.14;43.18;100166.13;4895674;29;20044;-70
2023/09/18 08:44:40;;;;;;;1.90;1.13;;;;;;;22.16;42.77;100161.19;4883183;29;20099;-71
2023/09/18 08:47:10;;;;;;;2.75;1.15;;;;;;;22.14;43.00;100166.13;4879204;29;20063;-71
2023/09/18 08:49:40;;;;;;;2.80;1.20;;;;;;;22.15;42.77;100149.19;4899305;29;20056;-69
2023/09/18 08:52:09;;;;;;;2.97;1.40;;;;;;;22.16;42.81;100159.25;4899384;29;20127;-71
2023/09/18 08:54:37;;;;;;;1.60;0.93;;;;;;;22.16;42.99;100162.06;4899290;29;20056;-71
2023/09/18 08:57:07;;;;;;;2.30;1.00;;;;;;;22.18;42.95;100171.03;4898525;29;21516;-71
2023/09/18 08:59:38;;;;;;;3.03;0.98;;;;;;;22.22;42.81;100163.91;4898043;29;20056;-72
2023/09/18 09:02:11;;;;;;;2.87;1.03;;;;;;;22.20;43.01;100170.78;4881313;29;20150;-72
2023/09/18 09:04:39;;;;;;;;;;;;;;;21.94;43.38;100166.28;4897155;29;20104;-72
2023/09/18 09:07:07;;;;;;;2.30;1.00;;;;;;;22.21;42.97;100165.00;4898616;29;20171;-71
2023/09/18 09:09:36;;;;;;;1.90;0.90;;;;;;;22.28;42.77;100165.78;4902717;29;20143;-71
2023/09/18 09:12:04;;;;;;;2.83;1.17;;;;;;;22.31;42.56;100153.34;4905747;29;20051;-73
2023/09/18 09:14:32;;;;;;;2.47;1.10;;;;;;;22.34;42.65;100155.69;4906381;29;20140;-74
2023/09/18 09:17:02;;;;;;;2.17;1.10;;;;;;;22.40;42.70;100159.47;4887493;29;20056;-71
2023/09/18 09:19:32;;;;;;;3.08;1.15;;;;;;;22.40;42.23;100168.69;4906332;29;20492;-73
2023/09/18 09:22:00;;;;;;;1.88;1.00;;;;;;;22.43;42.23;100150.63;4890311;29;20051;-76
2023/09/18 09:24:40;;;;;;;3.05;1.10;;;;;;;22.48;41.70;100151.69;4906675;29;20067;-71
2023/09/18 09:27:08;;;;;;;2.13;1.00;;;;;;;22.47;42.02;100146.31;4905378;29;20251;-71
2023/09/18 09:29:36;;;;;;;1.67;1.00;;;;;;;22.51;41.92;100156.78;4908345;29;20433;-71
2023/09/18 09:32:18;;;;;;;3.15;1.30;;;;;;;22.56;41.72;100158.91;4906212;29;20134;-75
2023/09/18 09:34:47;;;;;;;2.10;1.00;;;;;;;22.56;42.02;100170.94;4908529;29;20075;-73
2023/09/18 09:37:15;;;;;;;2.85;0.98;;;;;;;22.60;41.92;100186.09;4904423;29;20051;-72
2023/09/18 09:39:50;;;;;;;2.40;0.90;;;;;;;22.66;41.84;100175.13;4901692;29;21392;-70
2023/09/18 09:42:22;;;;;;;1.85;0.90;;;;;;;22.67;41.97;100174.06;4901033;29;20427;-74
2023/09/18 09:45:01;;;;;;;2.97;1.17;;;;;;;22.70;41.55;100171.63;4882630;29;20049;-74
2023/09/18 09:47:35;;;;;;;2.97;1.00;;;;;;;22.74;41.46;100164.53;4899148;29;20352;-73
2023/09/18 09:50:10;;;;;;;1.90;0.80;;;;;;;22.78;41.30;100165.75;4901672;29;20056;-74
2023/09/18 09:52:43;;;;;;;2.85;1.02;;;;;;;22.81;41.32;100164.44;4908967;29;20064;-70
2023/09/18 09:55:20;;;;;;;2.08;1.05;;;;;;;22.84;41.54;100173.19;4903346;29;20056;-71
2023/09/18 09:57:50;;;;;;;2.03;0.93;;;;;;;22.85;41.71;100163.75;4906681;29;20075;-70
2023/09/18 10:00:33;;;;;;;1.55;0.90;;;;;;;22.88;41.47;100170.81;4893462;29;20139;-70
2023/09/18 10:03:04;;;;;;;1.80;0.85;;;;;;;22.93;41.60;100166.22;4889357;29;20062;-70
2023/09/18 10:05:35;;;;;;;1.95;0.90;;;;;;;22.95;41.63;100154.84;4906661;29;20052;-72
2023/09/18 10:08:07;;;;;;;2.72;1.10;;;;;;;23.02;41.68;100164.84;4909709;29;20102;-70
2023/09/18 10:10:38;;;;;;;2.20;1.20;;;;;;;23.05;41.86;100157.94;4891497;29;20507;-70
2023/09/18 10:13:11;;;;;;;2.95;1.05;;;;;;;23.14;41.45;100159.34;4889120;29;20062;-71
2023/09/18 10:15:42;;;;;;;1.85;1.08;;;;;;;23.19;41.60;100156.72;4907737;29;20044;-71
2023/09/18 10:18:29;;;;;;;2.60;1.20;;;;;;;23.25;40.88;100163.31;4889501;29;20048;-71
2023/09/18 10:21:06;;;;;;;2.47;1.10;;;;;;;23.34;41.07;100143.19;4892314;29;20088;-70
2023/09/18 10:23:52;;;;;;;2.55;1.10;;;;;;;23.41;40.74;100140.34;4911448;29;20433;-71
2023/09/18 10:26:28;;;;;;;2.33;1.20;;;;;;;23.49;41.29;100144.72;4889714;29;20052;-70
2023/09/18 10:28:59;;;;;;;3.05;1.20;;;;;;;23.58;41.24;100143.31;4907665;29;20060;-71
2023/09/18 10:31:29;;;;;;;2.22;1.17;;;;;;;23.66;40.83;100140.19;4906772;29;20052;-70
2023/09/18 10:34:00;;;;;;;3.05;1.23;;;;;;;23.77;40.62;100145.81;4905521;29;20048;-71
2023/09/18 10:36:30;;;;;;;1.90;1.20;;;;;;;23.83;41.17;100132.84;4904413;29;20052;-71
2023/09/18 10:39:02;;;;;;;1.88;1.08;;;;;;;23.95;40.31;100139.31;4907985;29;20421;-70
2023/09/18 10:41:31;;;;;;;2.60;1.30;;;;;;;24.04;40.27;100132.28;4886638;29;20465;-70
2023/09/18 10:44:01;;;;;;;2.10;1.20;;;;;;;24.17;40.11;100139.56;4905863;29;20067;-70
2023/09/18 10:46:29;;;;;;;2.05;1.00;;;;;;;24.27;39.95;100150.19;4888475;29;20531;-70
2023/09/18 10:49:00;;;;;;;3.33;1.30;;;;;;;24.40;39.10;100152.78;4903892;29;20069;-72
2023/09/18 10:51:29;;;;;;;2.03;1.00;;;;;;;24.45;39.17;100147.31;4905752;29;20058;-73
2023/09/18 10:53:57;;;;;;;1.90;1.20;;;;;;;24.58;38.87;100163.84;4885903;29;20399;-70
2023/09/18 10:56:26;;;;;;;2.05;1.05;;;;;;;24.67;38.36;100153.97;4906133;29;20059;-70
2023/09/18 10:59:00;;;;;;;2.83;1.25;;;;;;;24.79;37.39;100142.78;4884525;29;20495;-70
2023/09/18 11:01:29;;;;;;;3.40;1.30;;;;;;;24.85;37.87;100172.59;4894415;29;20627;-71
2023/09/18 11:04:06;;;;;;;1.95;1.13;;;;;;;24.96;37.11;100162.50;4905964;29;20126;-70
2023/09/18 11:07:03;;;;;;;1.73;1.10;;;;;;;25.02;37.37;100161.53;4909427;29;20150;-70
2023/09/18 11:09:33;;;;;;;2.22;1.08;;;;;;;25.09;37.99;100160.28;4907017;29;20066;-70
2023/09/18 11:12:06;;;;;;;2.45;1.30;;;;;;;25.21;36.72;100163.06;4906229;29;20107;-70
2023/09/18 11:14:45;;;;;;;3.03;1.25;;;;;;;25.29;36.70;100148.69;4907065;29;20067;-70
2023/09/18 11:17:34;;;;;;;2.15;1.20;;;;;;;25.32;36.18;100156.56;4908390;29;20178;-71
2023/09/18 11:20:11;;;;;;;1.67;1.20;;;;;;;25.41;36.49;100151.41;4905594;29;20039;-72
2023/09/18 11:22:41;;;;;;;2.60;1.15;;;;;;;25.44;36.74;100156.53;4906186;29;20471;-71
2023/09/18 11:25:47;;;;;;;2.58;1.20;;;;;;;25.49;35.88;100151.88;4905991;29;20054;-69
2023/09/18 11:28:18;;;;;;;2.22;1.13;;;;;;;25.54;36.56;100145.56;4905827;29;20135;-70
2023/09/18 11:30:51;;;;;;;4.20;1.23;;;;;;;25.62;35.88;100151.63;4905189;29;20480;-70
2023/09/18 11:33:31;;;;;;;3.95;1.25;;;;;;;25.67;35.32;100153.66;4908063;29;20107;-70
2023/09/18 11:36:05;;;;;;;2.95;1.65;;;;;;;25.72;35.40;100152.91;4889022;29;20122;-69
2023/09/18 11:38:35;;;;;;;2.80;1.20;;;;;;;25.74;36.06;100156.28;4905493;29;20051;-69
2023/09/18 11:41:25;;;;;;;1.65;1.10;;;;;;;25.77;35.11;100167.88;4906844;29;20083;-71